Time;durP1;ratioP1;P1;durP2;ratioP2;P2;SDS_P1;SDS_P2;PMS_P1;PMS_P2;Temp;Humidity;BMP_temperature;BMP_pressure;BME280_temperature;BME280_humidity;BME280_pressure;Samples;Min_cycle;Max_cycle;Signal;HPM_P1;HPM_P2
2022/09/02 00:01:30;;;;;;;2.45;0.80;;;;;;;14.99;63.66;101512.50;5047554;28;20045;-67
2022/09/02 00:04:07;;;;;;;1.65;0.85;;;;;;;14.93;62.94;101519.91;5048478;28;20682;-64
2022/09/02 00:06:35;;;;;;;1.38;0.80;;;;;;;14.93;62.81;101519.06;5051305;28;20056;-64
2022/09/02 00:09:04;;;;;;;1.65;0.80;;;;;;;14.91;63.96;101515.66;5049234;28;20054;-63
2022/09/02 00:11:33;;;;;;;1.67;1.05;;;;;;;14.88;64.33;101513.19;5050076;28;20038;-64
2022/09/02 00:14:03;;;;;;;1.55;0.90;;;;;;;14.87;64.05;101514.16;5047649;28;20071;-64
2022/09/02 00:16:32;;;;;;;3.92;1.10;;;;;;;14.90;63.95;101508.63;5044143;28;20056;-64
2022/09/02 00:19:01;;;;;;;1.95;1.10;;;;;;;14.97;63.21;101507.31;5043780;28;20091;-64
2022/09/02 00:21:29;;;;;;;1.33;0.82;;;;;;;14.99;63.85;101512.50;5057931;28;20060;-64
2022/09/02 00:23:56;;;;;;;5.72;1.23;;;;;;;14.97;64.80;101509.13;5043714;28;20045;-64
2022/09/02 00:26:23;;;;;;;1.85;1.20;;;;;;;14.85;64.85;101514.22;5052574;28;20045;-65
2022/09/02 00:28:50;;;;;;;2.22;1.00;;;;;;;14.88;64.37;101507.88;5046195;28;20071;-64
2022/09/02 00:31:24;;;;;;;3.97;1.30;;;;;;;14.97;63.35;101504.66;5054790;28;20623;-66
2022/09/02 00:33:52;;;;;;;3.58;0.90;;;;;;;14.99;63.20;101505.41;5048369;28;20059;-64
2022/09/02 00:36:20;;;;;;;1.63;0.90;;;;;;;14.96;63.37;101507.41;5050739;28;20576;-64
2022/09/02 00:38:47;;;;;;;2.50;1.30;;;;;;;14.98;62.83;101501.06;5050292;28;20051;-65
2022/09/02 00:41:14;;;;;;;2.85;1.13;;;;;;;15.06;62.23;101505.88;5053388;28;20061;-64
2022/09/02 00:43:53;;;;;;;2.75;0.93;;;;;;;15.09;63.22;101503.88;5052759;28;20049;-65
2022/09/02 00:46:23;;;;;;;2.97;1.02;;;;;;;15.09;62.69;101497.75;5053426;28;20129;-64
2022/09/02 00:48:59;;;;;;;1.83;0.95;;;;;;;15.11;61.98;101501.97;5044631;28;20049;-65
2022/09/02 00:51:30;;;;;;;2.88;0.90;;;;;;;15.07;63.33;101500.47;5038208;28;20124;-64
2022/09/02 00:53:58;;;;;;;2.72;1.10;;;;;;;15.02;64.20;101489.31;5058371;28;20194;-65
2022/09/02 00:56:27;;;;;;;3.03;1.00;;;;;;;14.98;63.66;101494.91;5058976;28;20098;-65
2022/09/02 00:58:54;;;;;;;1.65;1.00;;;;;;;15.00;64.42;101493.03;5052691;28;20639;-64
2022/09/02 01:01:22;;;;;;;3.53;1.17;;;;;;;14.94;65.11;101486.28;5059807;28;20067;-63
2022/09/02 01:03:50;;;;;;;1.38;1.00;;;;;;;14.86;64.69;101492.09;5064809;28;20065;-65
2022/09/02 01:06:20;;;;;;;2.20;0.85;;;;;;;14.92;63.78;101491.69;5044324;28;20053;-64
2022/09/02 01:08:53;;;;;;;2.00;0.90;;;;;;;14.97;63.41;101490.56;5044872;28;20562;-64
2022/09/02 01:11:21;;;;;;;2.05;1.08;;;;;;;14.93;63.61;101485.44;5048557;28;20061;-63
2022/09/02 01:13:48;;;;;;;5.85;1.10;;;;;;;14.96;63.33;101480.91;5051069;28;20147;-64
2022/09/02 01:16:23;;;;;;;3.20;0.95;;;;;;;14.96;63.13;101481.75;5056893;28;21725;-64
2022/09/02 01:18:54;;;;;;;1.45;0.93;;;;;;;14.99;64.17;101480.69;5047547;28;20072;-64
2022/09/02 01:21:22;;;;;;;1.13;0.93;;;;;;;14.92;65.90;101474.94;5052780;28;20517;-66
2022/09/02 01:23:51;;;;;;;1.90;0.90;;;;;;;14.85;65.18;101482.41;5057151;28;20049;-63
2022/09/02 01:26:18;;;;;;;2.83;1.10;;;;;;;14.88;63.72;101484.88;5053188;28;20067;-64
2022/09/02 01:28:46;;;;;;;1.70;0.98;;;;;;;14.96;62.69;101481.75;5049560;28;20132;-65
2022/09/02 01:31:13;;;;;;;2.28;0.70;;;;;;;14.99;62.47;101486.00;5048825;28;20136;-65
2022/09/02 01:33:40;;;;;;;2.22;1.02;;;;;;;15.04;62.32;101487.44;5049147;28;20057;-64
2022/09/02 01:36:09;;;;;;;1.33;0.93;;;;;;;15.08;62.44;101480.94;5048490;28;20055;-64
2022/09/02 01:38:37;;;;;;;3.38;0.82;;;;;;;15.01;63.15;101474.34;5044551;28;20080;-64
2022/09/02 01:41:04;;;;;;;2.35;1.35;;;;;;;15.05;62.14;101475.88;5047723;28;20100;-64
2022/09/02 01:43:31;;;;;;;2.88;1.10;;;;;;;15.05;63.31;101481.16;5052320;28;20045;-64
2022/09/02 01:46:00;;;;;;;2.47;0.90;;;;;;;15.03;63.13;101483.03;5048334;28;20041;-64
2022/09/02 01:48:28;;;;;;;1.45;1.08;;;;;;;15.01;63.26;101482.31;5047126;28;20513;-64
2022/09/02 01:50:58;;;;;;;2.40;1.10;;;;;;;14.98;63.26;101481.66;5044857;28;20139;-63
2022/09/02 01:53:26;;;;;;;3.08;0.73;;;;;;;15.03;62.71;101482.19;5048100;28;20067;-63
2022/09/02 01:55:53;;;;;;;1.80;1.00;;;;;;;15.04;62.94;101478.59;5046918;28;20048;-64
2022/09/02 01:58:20;;;;;;;2.55;1.10;;;;;;;15.00;63.82;101477.97;5046461;28;20057;-64
2022/09/02 02:00:47;;;;;;;3.58;1.00;;;;;;;14.92;63.78;101475.78;5055462;28;20574;-64
2022/09/02 02:03:15;;;;;;;1.85;0.95;;;;;;;14.92;63.58;101477.59;5049098;28;20052;-64
2022/09/02 02:05:42;;;;;;;1.95;1.00;;;;;;;14.96;62.89;101468.50;5048141;28;20053;-63
2022/09/02 02:08:09;;;;;;;4.47;1.20;;;;;;;15.00;62.82;101467.34;5035942;28;20439;-64
2022/09/02 02:10:39;;;;;;;10.00;1.38;;;;;;;14.93;63.94;101466.88;5047574;28;20064;-64
2022/09/02 02:13:07;;;;;;;1.80;1.00;;;;;;;14.87;64.60;101466.44;5043831;28;20064;-64
2022/09/02 02:15:37;;;;;;;2.20;1.02;;;;;;;14.82;64.64;101469.38;5054841;28;20056;-63
2022/09/02 02:18:04;;;;;;;1.33;0.73;;;;;;;14.88;63.65;101474.28;5045539;28;20139;-66
2022/09/02 02:20:31;;;;;;;2.47;1.23;;;;;;;14.90;65.62;101467.09;5051999;28;20045;-64
2022/09/02 02:22:59;;;;;;;2.25;1.02;;;;;;;14.80;66.39;101465.09;5053124;28;20041;-64
2022/09/02 02:25:26;;;;;;;1.38;0.90;;;;;;;14.72;65.44;101462.06;5052937;28;20048;-64
2022/09/02 02:27:54;;;;;;;4.53;1.02;;;;;;;14.73;66.05;101464.66;5038810;28;20453;-63
2022/09/02 02:30:22;;;;;;;2.85;1.20;;;;;;;14.72;65.08;101475.31;5050602;28;20052;-63
2022/09/02 02:32:49;;;;;;;2.20;1.05;;;;;;;14.75;64.96;101465.41;5049201;28;20037;-65
2022/09/02 02:35:17;;;;;;;1.45;0.98;;;;;;;14.76;64.72;101467.09;5048152;28;20444;-65
2022/09/02 02:37:47;;;;;;;3.00;1.20;;;;;;;14.83;64.50;101462.28;5050052;28;20048;-64
2022/09/02 02:40:18;;;;;;;2.03;0.95;;;;;;;14.78;64.61;101462.56;5041330;28;20521;-64
2022/09/02 02:42:46;;;;;;;2.75;1.02;;;;;;;14.76;65.06;101464.44;5050473;28;20056;-64
2022/09/02 02:45:13;;;;;;;1.30;0.90;;;;;;;14.66;65.51;101461.53;5054210;28;20052;-65
2022/09/02 02:47:44;;;;;;;1.52;1.00;;;;;;;14.69;64.59;101469.28;5047407;28;20071;-64
2022/09/02 02:50:14;;;;;;;3.03;1.10;;;;;;;14.69;65.29;101471.09;5056238;28;20063;-64
2022/09/02 02:52:42;;;;;;;4.32;1.55;;;;;;;14.66;65.46;101465.97;5054447;28;20546;-64
2022/09/02 02:55:11;;;;;;;2.28;1.02;;;;;;;14.56;67.21;101467.50;5065213;28;20048;-65
2022/09/02 02:57:41;;;;;;;1.98;1.27;;;;;;;14.43;67.27;101456.78;5055983;28;20064;-68
2022/09/02 03:00:11;;;;;;;1.58;1.05;;;;;;;14.47;66.29;101458.28;5071890;28;20548;-63
2022/09/02 03:02:38;;;;;;;4.15;1.00;;;;;;;14.53;65.48;101459.72;5050998;28;20048;-64
2022/09/02 03:05:07;;;;;;;2.22;1.10;;;;;;;14.54;64.91;101464.06;5053905;28;20064;-63
2022/09/02 03:07:34;;;;;;;2.00;1.40;;;;;;;14.44;66.57;101459.31;5054956;28;20053;-63
2022/09/02 03:10:07;;;;;;;1.30;1.02;;;;;;;14.35;66.66;101459.03;5051863;28;20055;-64
2022/09/02 03:12:35;;;;;;;1.67;1.13;;;;;;;14.24;67.03;101458.84;5045617;28;20132;-64
2022/09/02 03:15:03;;;;;;;2.25;1.00;;;;;;;14.23;66.66;101457.13;5074538;28;20052;-64
2022/09/02 03:17:30;;;;;;;1.60;1.08;;;;;;;14.22;67.26;101453.63;5044658;28;20045;-65
2022/09/02 03:19:58;;;;;;;2.33;1.20;;;;;;;14.19;67.51;101454.69;5055054;28;20049;-65
2022/09/02 03:22:26;;;;;;;2.78;1.15;;;;;;;14.14;66.84;101458.56;5050957;28;20044;-64
2022/09/02 03:24:53;;;;;;;1.98;1.33;;;;;;;14.22;66.35;101455.44;5054736;28;20140;-64
2022/09/02 03:27:20;;;;;;;3.17;1.40;;;;;;;14.12;68.17;101452.50;5052431;28;20050;-65
2022/09/02 03:29:47;;;;;;;4.20;1.20;;;;;;;14.07;67.61;101455.44;5053455;28;20052;-65
2022/09/02 03:32:15;;;;;;;1.98;1.10;;;;;;;14.04;67.36;101452.94;5059765;28;20052;-66
2022/09/02 03:34:42;;;;;;;2.30;1.23;;;;;;;14.07;67.53;101454.56;5053708;28;20045;-65
2022/09/02 03:37:09;;;;;;;1.70;1.10;;;;;;;14.06;66.70;101443.13;5049912;28;20053;-64
2022/09/02 03:39:38;;;;;;;1.63;1.02;;;;;;;14.13;66.27;101456.84;5051865;28;20580;-64
2022/09/02 03:42:06;;;;;;;1.73;1.30;;;;;;;14.14;66.19;101445.34;5053765;28;20048;-64
2022/09/02 03:44:43;;;;;;;4.28;1.40;;;;;;;14.13;66.62;101449.75;5050557;28;20045;-64
2022/09/02 03:47:12;;;;;;;3.25;1.30;;;;;;;14.01;68.21;101447.00;5052313;28;20068;-64
2022/09/02 03:49:39;;;;;;;2.17;1.13;;;;;;;13.94;67.28;101441.22;5082111;22;20048;-61
2022/09/02 03:52:09;;;;;;;2.28;1.65;;;;;;;13.90;67.54;101439.69;5076775;28;20067;-62
2022/09/02 03:54:37;;;;;;;2.80;1.17;;;;;;;13.86;67.79;101443.47;5087202;28;20066;-63
2022/09/02 03:57:04;;;;;;;3.00;1.60;;;;;;;13.87;68.19;101442.56;5080161;28;20048;-59
2022/09/02 03:59:31;;;;;;;2.42;0.95;;;;;;;13.88;68.46;101441.59;5071987;28;20049;-62
2022/09/02 04:02:01;;;;;;;8.63;1.92;;;;;;;13.81;68.36;101445.53;5060272;28;20492;-62
2022/09/02 04:04:29;;;;;;;3.72;1.63;;;;;;;13.84;67.48;101438.28;5063121;28;20076;-60
2022/09/02 04:06:57;;;;;;;2.42;1.40;;;;;;;13.80;67.88;101444.69;5064668;28;20049;-61
2022/09/02 04:09:24;;;;;;;3.15;2.03;;;;;;;13.78;67.65;101449.25;5067805;28;20074;-62
2022/09/02 04:11:51;;;;;;;3.17;1.50;;;;;;;13.75;69.65;101445.91;5067022;28;20049;-61
2022/09/02 04:14:18;;;;;;;3.67;1.55;;;;;;;13.69;69.46;101447.13;5065734;28;20052;-61
2022/09/02 04:16:46;;;;;;;4.15;1.45;;;;;;;13.71;68.56;101447.03;5062990;28;20048;-61
2022/09/02 04:19:13;;;;;;;2.80;1.63;;;;;;;13.73;69.10;101445.13;5067171;28;20063;-60
2022/09/02 04:21:40;;;;;;;5.57;1.38;;;;;;;13.68;69.39;101450.69;5065685;28;20052;-61
2022/09/02 04:24:09;;;;;;;13.48;1.92;;;;;;;13.70;68.46;101450.63;5062036;28;20055;-61
2022/09/02 04:26:36;;;;;;;2.63;1.45;;;;;;;13.72;69.99;101451.38;5065783;28;20049;-60
2022/09/02 04:29:10;;;;;;;2.63;1.27;;;;;;;13.68;69.05;101448.91;5065941;28;20052;-60
2022/09/02 04:31:38;;;;;;;2.78;1.52;;;;;;;13.76;68.80;101453.75;5062767;28;20428;-61
2022/09/02 04:34:06;;;;;;;2.42;1.40;;;;;;;13.85;68.28;101457.66;5063768;28;20049;-61
2022/09/02 04:36:33;;;;;;;4.18;1.67;;;;;;;13.81;69.08;101451.69;5066482;28;20475;-61
2022/09/02 04:39:00;;;;;;;3.72;1.52;;;;;;;13.72;69.08;101462.81;5062687;28;20511;-62
2022/09/02 04:41:29;;;;;;;1.83;1.25;;;;;;;13.69;69.10;101455.06;5065674;28;20055;-62
2022/09/02 04:43:58;;;;;;;3.47;1.50;;;;;;;13.76;68.62;101450.25;5064984;28;20040;-66
2022/09/02 04:46:25;;;;;;;3.78;1.52;;;;;;;13.74;69.44;101455.66;5064359;28;20335;-60
2022/09/02 04:49:01;;;;;;;;;;;;;;;13.72;68.16;101454.88;5048552;28;20405;-60
2022/09/02 04:51:28;;;;;;;5.35;1.50;;;;;;;13.71;68.92;101458.47;5064484;28;19920;-61
2022/09/02 04:53:55;;;;;;;5.63;2.00;;;;;;;13.64;70.67;101458.00;5062569;28;20075;-62
2022/09/02 04:56:24;;;;;;;5.93;1.25;;;;;;;13.65;70.48;101454.41;5065613;28;20492;-60
2022/09/02 04:58:53;;;;;;;4.25;1.40;;;;;;;13.65;70.54;101461.47;5060789;28;20041;-60
2022/09/02 05:01:23;;;;;;;4.95;1.35;;;;;;;13.68;69.31;101458.63;5055598;28;20060;-61
2022/09/02 05:03:51;;;;;;;4.22;1.65;;;;;;;13.79;68.87;101455.38;5056512;28;20183;-62
2022/09/02 05:06:26;;;;;;;6.35;2.22;;;;;;;13.83;68.52;101460.41;5056800;28;20064;-62
2022/09/02 05:08:55;;;;;;;1.70;1.48;;;;;;;13.84;68.70;101464.75;5044454;28;20044;-62
2022/09/02 05:11:27;;;;;;;3.58;1.70;;;;;;;13.86;68.96;101468.13;5054427;28;20436;-60
2022/09/02 05:13:56;;;;;;;3.47;1.48;;;;;;;13.85;71.41;101457.66;5059399;28;20055;-60
2022/09/02 05:16:27;;;;;;;2.50;1.30;;;;;;;13.76;70.69;101450.25;5066446;28;20052;-61
2022/09/02 05:18:54;;;;;;;6.28;1.52;;;;;;;13.79;71.89;101463.31;5059974;28;20055;-61
2022/09/02 05:21:22;;;;;;;2.42;1.52;;;;;;;13.73;70.66;101467.16;5062282;28;20052;-61
2022/09/02 05:23:51;;;;;;;2.13;1.50;;;;;;;13.76;69.63;101466.13;5058935;28;20067;-60
2022/09/02 05:26:21;;;;;;;2.25;1.30;;;;;;;13.83;69.60;101463.06;5066836;28;20068;-61
2022/09/02 05:28:49;;;;;;;12.10;1.90;;;;;;;13.91;70.60;101467.88;5065175;28;20075;-61
2022/09/02 05:31:18;;;;;;;9.18;1.90;;;;;;;13.89;70.85;101472.41;5064625;28;20056;-61
2022/09/02 05:33:45;;;;;;;4.15;1.67;;;;;;;13.87;70.09;101474.31;5063765;28;20068;-62
2022/09/02 05:36:20;;;;;;;3.65;1.70;;;;;;;13.95;71.12;101464.09;5068852;28;20063;-60
2022/09/02 05:38:47;;;;;;;3.17;1.40;;;;;;;13.98;69.67;101476.31;5065389;28;20052;-62
2022/09/02 05:41:22;;;;;;;3.13;1.30;;;;;;;14.07;69.17;101467.81;5066405;28;20049;-62
2022/09/02 05:43:54;;;;;;;3.05;1.33;;;;;;;14.14;68.83;101463.88;5062751;28;20473;-61
2022/09/02 05:46:23;;;;;;;2.00;1.20;;;;;;;14.18;68.88;101474.19;5066772;28;20063;-60
2022/09/02 05:49:16;;;;;;;4.65;2.10;;;;;;;14.25;70.52;101468.50;5061663;28;20564;-60
2022/09/02 05:51:49;;;;;;;6.05;2.22;;;;;;;14.19;69.87;101470.59;5062019;28;20068;-59
2022/09/02 05:54:27;;;;;;;2.92;1.80;;;;;;;14.14;70.01;101470.00;5063077;28;20413;-61
2022/09/02 05:56:56;;;;;;;4.13;1.48;;;;;;;14.21;69.17;101466.97;5059703;28;20045;-64
2022/09/02 05:59:25;;;;;;;8.25;1.67;;;;;;;14.30;68.93;101472.56;5059962;28;20041;-62
2022/09/02 06:01:53;;;;;;;5.05;1.60;;;;;;;14.39;69.17;101473.81;5061229;28;20583;-61
2022/09/02 06:04:21;;;;;;;5.15;1.40;;;;;;;14.46;67.97;101471.66;5066928;28;20104;-61
2022/09/02 06:06:49;;;;;;;6.10;1.63;;;;;;;14.49;68.17;101477.63;5060044;28;20063;-61
2022/09/02 06:09:20;;;;;;;6.32;1.92;;;;;;;14.56;68.22;101478.09;5064792;28;20053;-59
2022/09/02 06:11:50;;;;;;;6.00;2.20;;;;;;;14.62;67.75;101477.72;5063961;28;20044;-61
2022/09/02 06:14:20;;;;;;;4.93;1.95;;;;;;;14.66;68.22;101479.22;5065155;28;20052;-60
2022/09/02 06:16:49;;;;;;;5.13;2.22;;;;;;;14.67;69.42;101473.81;5063577;28;20052;-61
2022/09/02 06:19:16;;;;;;;3.10;1.70;;;;;;;14.64;69.04;101476.69;5066090;28;20044;-61
2022/09/02 06:21:47;;;;;;;4.53;1.85;;;;;;;14.73;69.56;101474.41;5059727;28;20048;-59
2022/09/02 06:24:15;;;;;;;10.23;2.83;;;;;;;14.68;69.67;101478.19;5060388;28;20058;-61
2022/09/02 06:26:42;;;;;;;6.13;1.77;;;;;;;14.68;69.44;101467.59;5064682;28;20056;-60
2022/09/02 06:29:09;;;;;;;3.17;1.80;;;;;;;14.73;68.89;101469.97;5066399;28;20053;-61
2022/09/02 06:31:40;;;;;;;4.00;1.80;;;;;;;14.78;68.54;101472.31;5069325;28;20041;-59
2022/09/02 06:34:07;;;;;;;5.18;2.15;;;;;;;14.87;68.19;101471.72;5060440;28;20045;-60
2022/09/02 06:36:35;;;;;;;5.68;1.80;;;;;;;14.92;69.26;101478.44;5066311;28;20098;-60
2022/09/02 06:39:02;;;;;;;5.07;2.25;;;;;;;14.97;68.46;101475.50;5058601;28;20052;-61
2022/09/02 06:41:32;;;;;;;5.05;2.20;;;;;;;15.02;67.68;101475.19;5045990;28;20493;-61
2022/09/02 06:44:01;;;;;;;6.80;2.45;;;;;;;15.09;69.34;101468.56;5060629;28;20052;-61
2022/09/02 06:46:32;;;;;;;7.82;2.40;;;;;;;15.13;68.57;101476.22;5057695;28;20405;-61
2022/09/02 06:49:00;;;;;;;8.63;2.35;;;;;;;15.17;68.31;101475.06;5044547;28;20055;-61
2022/09/02 06:51:32;;;;;;;5.47;2.05;;;;;;;15.29;69.75;101478.72;5055085;28;20057;-61
2022/09/02 06:53:59;;;;;;;5.07;2.10;;;;;;;15.36;68.32;101473.88;5062752;28;20409;-61
2022/09/02 06:56:27;;;;;;;6.35;1.88;;;;;;;15.42;67.88;101470.81;5063644;28;20051;-61
2022/09/02 06:58:55;;;;;;;9.00;2.08;;;;;;;15.52;66.79;101463.94;5044976;28;20056;-61
2022/09/02 07:01:25;;;;;;;4.63;2.13;;;;;;;15.65;66.29;101461.34;5063986;28;20055;-59
2022/09/02 07:06:39;;;;;;;;;;;;;;;15.79;68.10;101461.28;5063461;28;20056;-61
2022/09/02 07:09:09;;;;;;;6.28;1.90;;;;;;;15.82;66.27;101457.56;5063613;28;20041;-60
2022/09/02 07:11:38;;;;;;;6.00;2.13;;;;;;;15.88;66.17;101459.81;5067251;28;20461;-61
2022/09/02 07:14:05;;;;;;;6.82;2.30;;;;;;;15.97;66.14;101464.50;5054767;28;20072;-61
2022/09/02 07:16:40;;;;;;;4.60;2.25;;;;;;;16.05;66.06;101467.47;5067676;28;20211;-62
2022/09/02 07:19:08;;;;;;;3.70;1.75;;;;;;;16.12;65.98;101460.81;5060456;28;20048;-62
2022/09/02 07:21:42;;;;;;;6.93;2.35;;;;;;;16.23;65.66;101469.81;5060769;28;20055;-57
2022/09/02 07:24:11;;;;;;;7.22;2.30;;;;;;;16.28;65.93;101473.00;5060766;28;20053;-62
2022/09/02 07:26:39;;;;;;;10.43;2.10;;;;;;;16.27;67.14;101471.31;5066019;28;20040;-62
2022/09/02 07:29:07;;;;;;;9.18;3.47;;;;;;;16.28;66.23;101467.69;5057157;28;20534;-62
2022/09/02 07:31:37;;;;;;;15.25;2.92;;;;;;;16.37;66.04;101465.25;5061902;28;20040;-62
2022/09/02 07:34:05;;;;;;;7.20;2.47;;;;;;;16.44;65.78;101473.66;5045662;28;20431;-59
2022/09/02 07:36:33;;;;;;;3.47;1.70;;;;;;;16.55;65.41;101471.06;5066629;28;20044;-60
2022/09/02 07:39:03;;;;;;;5.63;2.08;;;;;;;16.62;66.36;101471.50;5065906;28;20043;-61
2022/09/02 07:41:30;;;;;;;3.60;2.05;;;;;;;16.68;65.19;101465.75;5071504;28;20099;-60
2022/09/02 07:43:57;;;;;;;4.13;2.08;;;;;;;16.77;65.20;101466.94;5064133;28;20053;-62
2022/09/02 07:46:28;;;;;;;5.82;2.05;;;;;;;16.83;64.76;101469.13;5063587;28;20052;-62
2022/09/02 07:48:55;;;;;;;4.53;1.70;;;;;;;16.94;64.37;101461.25;5069654;28;20063;-62
2022/09/02 07:51:23;;;;;;;3.17;1.70;;;;;;;17.01;64.28;101462.50;5067554;28;20496;-61
2022/09/02 07:53:56;;;;;;;8.02;2.42;;;;;;;17.07;64.81;101464.72;5063740;28;20424;-61
2022/09/02 07:56:24;;;;;;;3.95;1.88;;;;;;;17.12;64.50;101473.22;5068324;28;20059;-61
2022/09/02 07:58:51;;;;;;;5.63;2.10;;;;;;;17.14;65.47;101468.63;5067249;28;20044;-60
2022/09/02 08:01:19;;;;;;;3.15;1.52;;;;;;;17.20;64.68;101467.31;5064830;28;20468;-61
2022/09/02 08:03:50;;;;;;;2.97;1.60;;;;;;;17.28;64.57;101477.41;5067319;28;20044;-61
2022/09/02 08:06:19;;;;;;;8.55;2.30;;;;;;;17.35;65.21;101463.53;5063998;28;20045;-63
2022/09/02 08:09:10;;;;;;;4.55;1.58;;;;;;;17.46;64.02;101463.56;5063901;28;20048;-59
2022/09/02 08:11:39;;;;;;;4.15;1.58;;;;;;;17.57;63.45;101467.28;5066941;28;20053;-61
2022/09/02 08:14:10;;;;;;;2.67;1.10;;;;;;;17.67;63.46;101470.94;5066055;28;20163;-59
2022/09/02 08:16:38;;;;;;;3.25;1.30;;;;;;;17.74;63.28;101466.00;5064425;28;20045;-60
2022/09/02 08:19:06;;;;;;;4.43;1.50;;;;;;;17.72;63.54;101468.75;5062439;28;20060;-62
2022/09/02 08:21:34;;;;;;;2.22;1.15;;;;;;;17.70;63.48;101473.38;5067731;28;20424;-62
2022/09/02 08:24:01;;;;;;;3.10;1.30;;;;;;;17.71;63.01;101467.06;5063240;28;20055;-61
2022/09/02 08:26:29;;;;;;;3.35;1.20;;;;;;;17.76;63.11;101467.59;5065462;28;20047;-61
2022/09/02 08:28:56;;;;;;;3.38;1.40;;;;;;;17.82;63.07;101467.13;5060372;28;20048;-60
2022/09/02 08:31:23;;;;;;;6.68;1.73;;;;;;;17.86;62.88;101465.09;5065037;28;20086;-61
2022/09/02 08:33:50;;;;;;;3.53;1.13;;;;;;;17.96;62.73;101474.91;5057055;28;20067;-61
2022/09/02 08:36:19;;;;;;;3.50;1.48;;;;;;;18.05;63.29;101469.84;5061790;28;20163;-59
2022/09/02 08:38:49;;;;;;;4.75;1.30;;;;;;;18.11;62.69;101456.91;5065126;28;20056;-61
2022/09/02 08:41:20;;;;;;;6.72;1.55;;;;;;;18.18;62.81;101460.78;5065012;28;20063;-60
2022/09/02 08:43:49;;;;;;;4.80;1.30;;;;;;;18.25;62.49;101460.31;5064081;28;20040;-61
2022/09/02 08:46:17;;;;;;;5.97;1.23;;;;;;;18.33;62.17;101457.91;5064443;28;20064;-61
2022/09/02 08:48:53;;;;;;;3.38;1.02;;;;;;;18.41;61.68;101458.13;5047926;28;20048;-61
2022/09/02 08:51:28;;;;;;;5.25;1.15;;;;;;;18.49;61.67;101463.72;5065194;28;20509;-61
2022/09/02 08:54:05;;;;;;;6.22;1.40;;;;;;;18.56;61.29;101464.09;5064576;28;20056;-61
2022/09/02 08:56:32;;;;;;;1.92;0.85;;;;;;;18.64;60.91;101454.53;5050577;28;20380;-61
2022/09/02 08:59:02;;;;;;;2.63;1.00;;;;;;;18.70;60.72;101455.88;5061773;28;20509;-62
2022/09/02 09:01:37;;;;;;;2.92;0.93;;;;;;;18.75;59.97;101458.19;5067646;28;20055;-61
2022/09/02 09:04:12;;;;;;;2.85;1.05;;;;;;;18.84;60.25;101452.09;5063460;28;20048;-59
2022/09/02 09:06:49;;;;;;;2.70;1.35;;;;;;;18.91;60.13;101453.28;5060224;28;20304;-61
2022/09/02 09:09:43;;;;;;;2.05;0.82;;;;;;;18.97;59.48;101455.47;5057869;28;20144;-61
2022/09/02 09:12:40;;;;;;;1.90;1.30;;;;;;;19.04;59.06;101440.63;5046876;28;20071;-61
2022/09/02 09:15:49;;;;;;;1.33;0.90;;;;;;;19.14;58.76;101446.09;5063918;28;20453;-62
2022/09/02 09:18:22;;;;;;;3.13;1.30;;;;;;;19.23;58.09;101446.19;5027584;28;20041;-61
2022/09/02 09:20:50;;;;;;;2.08;0.80;;;;;;;19.32;57.05;101446.38;5062798;28;20096;-61
2022/09/02 09:23:33;;;;;;;2.45;0.88;;;;;;;19.39;56.91;101437.75;5063959;28;20048;-61
2022/09/02 09:26:11;;;;;;;2.47;0.75;;;;;;;19.42;57.14;101442.84;5063248;28;20052;-61
2022/09/02 09:28:43;;;;;;;1.35;0.63;;;;;;;19.44;55.36;101442.69;5054332;28;20067;-61
2022/09/02 09:31:23;;;;;;;1.52;0.80;;;;;;;19.48;55.17;101441.47;5064875;28;20064;-61
2022/09/02 09:34:11;;;;;;;1.00;0.70;;;;;;;19.53;54.18;101436.59;5063729;28;20159;-61
2022/09/02 09:36:46;;;;;;;1.25;0.80;;;;;;;19.61;54.80;101436.81;5058582;28;20044;-61
2022/09/02 09:39:24;;;;;;;2.45;0.63;;;;;;;19.70;54.17;101421.84;5064320;28;20071;-62
2022/09/02 09:41:56;;;;;;;2.50;0.93;;;;;;;19.77;54.32;101424.84;5064018;28;20535;-62
2022/09/02 09:44:44;;;;;;;3.08;0.85;;;;;;;19.81;54.35;101426.28;5065796;28;20059;-62
2022/09/02 09:47:18;;;;;;;1.25;0.60;;;;;;;19.87;53.05;101417.75;5065964;28;20524;-62
2022/09/02 09:49:47;;;;;;;3.20;0.60;;;;;;;19.93;53.70;101419.88;5063805;28;20044;-62
2022/09/02 09:52:22;;;;;;;2.88;0.70;;;;;;;19.98;52.38;101420.34;5045421;28;20048;-61
2022/09/02 09:55:10;;;;;;;0.70;0.45;;;;;;;20.04;51.57;101417.16;5058963;28;20115;-62
2022/09/02 09:57:40;;;;;;;2.13;0.85;;;;;;;20.11;52.51;101414.78;5059704;28;20072;-59
2022/09/02 10:00:15;;;;;;;3.75;1.10;;;;;;;20.16;52.84;101410.72;5065154;28;20045;-61
2022/09/02 10:02:50;;;;;;;2.17;0.85;;;;;;;20.22;51.89;101409.38;5066972;28;20325;-62
2022/09/02 10:05:18;;;;;;;1.10;0.70;;;;;;;20.27;51.78;101407.13;5058927;28;20071;-62
2022/09/02 10:07:58;;;;;;;1.75;0.77;;;;;;;20.36;51.40;101408.16;5044987;28;20516;-61
2022/09/02 10:10:27;;;;;;;1.33;0.60;;;;;;;20.46;51.08;101406.34;5058394;28;20053;-62
2022/09/02 10:12:59;;;;;;;2.17;0.73;;;;;;;20.49;50.68;101406.13;5054397;28;20084;-62
2022/09/02 10:15:37;;;;;;;2.22;1.20;;;;;;;20.52;50.29;101407.66;5052400;28;20040;-61
2022/09/02 10:18:21;;;;;;;2.40;1.00;;;;;;;20.53;50.81;101410.19;5037393;28;20809;-62
2022/09/02 10:21:00;;;;;;;3.88;1.23;;;;;;;20.67;50.39;101404.50;5066975;28;20386;-61
2022/09/02 10:23:51;;;;;;;7.05;1.08;;;;;;;20.85;49.08;101402.00;5045539;28;20068;-60
2022/09/02 10:26:24;;;;;;;6.15;1.00;;;;;;;20.93;50.01;101399.44;5048764;28;20413;-62
2022/09/02 10:29:19;;;;;;;1.33;0.77;;;;;;;21.01;50.04;101393.41;5046967;28;20052;-62
2022/09/02 10:32:04;;;;;;;2.72;0.95;;;;;;;21.16;50.13;101388.47;5040904;28;20056;-62
2022/09/02 10:34:49;;;;;;;3.67;1.17;;;;;;;21.29;49.46;101388.19;5062509;28;20052;-62
2022/09/02 10:37:18;;;;;;;5.00;1.50;;;;;;;21.29;48.58;101388.19;5062254;28;20417;-62
2022/09/02 10:40:09;;;;;;;1.17;0.73;;;;;;;21.29;49.45;101382.84;5044977;28;20056;-62
2022/09/02 10:43:06;;;;;;;1.55;1.05;;;;;;;21.15;46.63;101386.78;5049561;28;20037;-62
2022/09/02 10:46:00;;;;;;;1.67;0.80;;;;;;;21.13;47.78;101394.13;5040253;28;20071;-62
2022/09/02 10:49:04;;;;;;;4.30;1.15;;;;;;;21.07;48.48;101389.31;5058566;28;20052;-62
2022/09/02 10:51:43;;;;;;;2.45;0.73;;;;;;;21.14;46.67;101388.63;5063958;28;20223;-62
2022/09/02 10:54:20;;;;;;;2.38;1.00;;;;;;;21.24;48.19;101386.78;5055345;28;20045;-62
2022/09/02 10:57:14;;;;;;;3.10;0.90;;;;;;;21.33;47.00;101389.66;5040458;28;20489;-62
2022/09/02 10:59:55;;;;;;;1.85;0.85;;;;;;;21.35;47.10;101382.34;5058566;28;20056;-62
2022/09/02 11:02:30;;;;;;;3.97;1.20;;;;;;;21.41;46.73;101382.59;5054838;28;20072;-59
2022/09/02 11:05:02;;;;;;;2.38;1.23;;;;;;;21.57;46.11;101376.66;5027637;28;20051;-59
2022/09/02 11:07:40;;;;;;;3.83;1.05;;;;;;;21.64;45.34;101379.59;5045131;28;20069;-61
2022/09/02 11:10:11;;;;;;;1.75;0.90;;;;;;;21.52;44.37;101386.09;5060982;28;20381;-60
2022/09/02 11:12:43;;;;;;;4.00;0.90;;;;;;;21.39;44.38;101381.91;5046870;28;20429;-60
2022/09/02 11:15:16;;;;;;;2.08;1.08;;;;;;;21.33;45.40;101379.78;5066612;28;20067;-60
2022/09/02 11:17:48;;;;;;;0.90;0.63;;;;;;;21.27;45.03;101382.16;5064725;28;20496;-58
2022/09/02 11:20:44;;;;;;;1.30;0.93;;;;;;;21.27;43.37;101374.97;5045878;28;20052;-60
2022/09/02 11:23:38;;;;;;;3.03;1.02;;;;;;;21.43;43.92;101367.25;5035880;28;20056;-60
2022/09/02 11:26:10;;;;;;;1.92;0.88;;;;;;;21.51;44.28;101371.84;5067395;28;20053;-59
2022/09/02 11:28:58;;;;;;;3.05;1.15;;;;;;;21.76;43.86;101372.25;5043620;28;20532;-60
2022/09/02 11:31:37;;;;;;;3.17;0.90;;;;;;;22.13;43.71;101374.97;5043666;28;20044;-61
2022/09/02 11:34:20;;;;;;;1.88;1.05;;;;;;;22.44;43.02;101367.50;5063190;28;20048;-59
2022/09/02 11:36:48;;;;;;;3.20;0.80;;;;;;;22.71;43.28;101372.84;5065422;28;20049;-60
2022/09/02 11:39:28;;;;;;;4.38;1.17;;;;;;;22.82;41.93;101373.59;5048123;28;20248;-60
2022/09/02 11:42:21;;;;;;;3.22;1.10;;;;;;;23.04;40.98;101365.13;5060744;28;20076;-60
2022/09/02 11:45:09;;;;;;;8.43;1.20;;;;;;;23.25;39.61;101373.72;5047505;28;20052;-60
2022/09/02 11:47:51;;;;;;;2.85;1.10;;;;;;;23.39;38.80;101360.75;5063618;28;20059;-60
2022/09/02 11:50:39;;;;;;;1.25;0.70;;;;;;;23.59;39.39;101358.69;5063908;28;20059;-51